createdAt,value
2019-04-27T00:01:36.148Z,17.14
2019-04-27T00:04:25.371Z,17.16
2019-04-27T00:06:56.698Z,17.17
2019-04-27T00:09:50.234Z,17.00
2019-04-27T00:12:22.360Z,17.20
2019-04-27T00:14:48.258Z,17.38
2019-04-27T00:17:41.232Z,17.30
2019-04-27T00:19:55.722Z,17.18
2019-04-27T00:22:30.761Z,17.33
2019-04-27T00:25:00.163Z,17.38
2019-04-27T00:27:30.535Z,17.30
2019-04-27T00:30:03.878Z,17.35
2019-04-27T00:32:33.660Z,17.42
2019-04-27T00:35:03.819Z,17.51
2019-04-27T00:37:39.503Z,17.61
2019-04-27T00:40:24.080Z,17.52
2019-04-27T00:42:56.567Z,17.54
2019-04-27T00:45:29.063Z,17.54
2019-04-27T00:47:59.983Z,17.35
2019-04-27T00:50:30.397Z,17.43
2019-04-27T00:53:00.748Z,17.14
2019-04-27T00:55:30.390Z,17.30
2019-04-27T00:58:12.959Z,17.49
2019-04-27T01:01:00.015Z,17.42
2019-04-27T01:03:33.216Z,17.40
2019-04-27T01:06:03.254Z,17.56
2019-04-27T01:08:34.265Z,17.54
2019-04-27T01:11:05.872Z,17.57
2019-04-27T01:13:35.224Z,17.51
2019-04-27T01:16:05.900Z,17.24
2019-04-27T01:18:38.740Z,17.40
2019-04-27T01:21:09.327Z,17.48
2019-04-27T01:23:38.723Z,17.39
2019-04-27T01:26:10.658Z,17.45
2019-04-27T01:28:49.006Z,17.46
2019-04-27T01:31:21.122Z,17.49
2019-04-27T01:33:49.607Z,17.51
2019-04-27T01:36:19.125Z,17.69
2019-04-27T01:38:49.676Z,17.68
2019-04-27T01:41:19.384Z,17.53
2019-04-27T01:43:50.734Z,17.60
2019-04-27T01:46:21.103Z,17.46
2019-04-27T01:48:51.715Z,17.32
2019-04-27T01:51:22.015Z,17.43
2019-04-27T01:53:51.385Z,17.32
2019-04-27T01:56:22.098Z,17.25
2019-04-27T01:58:51.685Z,17.22
2019-04-27T02:01:23.956Z,17.38
2019-04-27T02:03:54.468Z,17.51
2019-04-27T02:06:26.165Z,17.29
2019-04-27T02:08:55.750Z,17.01
2019-04-27T02:11:26.308Z,17.34
2019-04-27T02:13:55.713Z,17.30
2019-04-27T02:16:26.118Z,17.40
2019-04-27T02:18:54.615Z,17.51
2019-04-27T02:21:24.011Z,17.31
2019-04-27T02:23:52.543Z,16.88
2019-04-27T02:26:21.858Z,17.14
2019-04-27T02:28:56.547Z,17.31
2019-04-27T02:31:29.590Z,17.16
2019-04-27T02:34:06.537Z,17.03
2019-04-27T02:36:35.027Z,17.17
2019-04-27T02:39:05.615Z,17.45
2019-04-27T02:41:36.085Z,17.49
2019-04-27T02:44:09.704Z,17.18
2019-04-27T02:46:40.783Z,17.19
2019-04-27T02:49:11.300Z,16.91
2019-04-27T02:51:59.473Z,16.29
2019-04-27T02:54:30.375Z,16.85
2019-04-27T02:57:01.333Z,16.75
2019-04-27T02:59:30.664Z,16.59
2019-04-27T03:02:10.803Z,16.91
2019-04-27T03:04:41.508Z,16.93
2019-04-27T03:07:11.866Z,16.80
2019-04-27T03:09:42.288Z,16.32
2019-04-27T03:12:13.109Z,16.46
2019-04-27T03:14:45.307Z,16.38
2019-04-27T03:17:22.254Z,16.18
2019-04-27T03:19:53.011Z,16.76
2019-04-27T03:22:25.089Z,16.57
2019-04-27T03:25:14.957Z,16.86
2019-04-27T03:27:47.024Z,16.47
2019-04-27T03:30:22.478Z,16.76
2019-04-27T03:32:55.518Z,16.72
2019-04-27T03:35:23.312Z,16.66
2019-04-27T03:37:56.866Z,16.58
2019-04-27T03:40:30.499Z,16.78
2019-04-27T03:43:00.411Z,16.74
2019-04-27T03:45:30.239Z,16.38
2019-04-27T03:48:00.416Z,16.48
2019-04-27T03:50:34.129Z,16.65
2019-04-27T03:53:06.212Z,16.78
2019-04-27T03:55:49.992Z,16.93
2019-04-27T03:58:21.795Z,16.96
2019-04-27T04:00:54.850Z,16.83
2019-04-27T04:03:25.162Z,16.75
2019-04-27T04:05:55.672Z,16.95
2019-04-27T04:08:26.068Z,16.82
2019-04-27T04:11:03.689Z,16.63
2019-04-27T04:13:46.662Z,16.71
2019-04-27T04:16:20.197Z,16.68
2019-04-27T04:19:00.758Z,16.85
2019-04-27T04:21:29.992Z,16.97
2019-04-27T04:24:00.983Z,17.03
2019-04-27T04:26:32.701Z,16.98
2019-04-27T04:29:02.337Z,17.22
2019-04-27T04:31:33.426Z,17.28
2019-04-27T04:34:04.077Z,16.84
2019-04-27T04:36:33.584Z,16.54
2019-04-27T04:39:04.153Z,16.45
2019-04-27T04:41:51.291Z,16.45
2019-04-27T04:44:23.449Z,16.56
2019-04-27T04:46:55.657Z,16.72
2019-04-27T04:49:29.419Z,16.91
2019-04-27T04:51:59.417Z,16.86
2019-04-27T04:54:30.238Z,16.85
2019-04-27T04:57:02.684Z,16.83
2019-04-27T04:59:32.360Z,16.37
2019-04-27T05:02:02.370Z,16.74
2019-04-27T05:04:33.383Z,16.60
2019-04-27T05:07:03.894Z,16.45
2019-04-27T05:09:33.270Z,16.84
2019-04-27T05:12:02.649Z,16.89
2019-04-27T05:14:33.014Z,16.88
2019-04-27T05:17:03.530Z,17.13
2019-04-27T05:19:33.825Z,17.19
2019-04-27T05:22:04.441Z,17.41
2019-04-27T05:24:36.516Z,17.34
2019-04-27T05:27:06.923Z,17.47
2019-04-27T05:29:35.666Z,17.55
2019-04-27T05:32:05.021Z,17.43
2019-04-27T05:34:35.529Z,17.21
2019-04-27T05:37:05.250Z,17.13
2019-04-27T05:39:35.608Z,17.28
2019-04-27T05:42:06.018Z,17.40
2019-04-27T05:44:55.378Z,17.36
2019-04-27T05:47:26.326Z,17.23
2019-04-27T05:49:58.888Z,17.35
2019-04-27T05:52:29.398Z,17.55
2019-04-27T05:55:04.469Z,17.57
2019-04-27T05:57:35.081Z,17.42
2019-04-27T06:00:05.916Z,17.42
2019-04-27T06:02:39.717Z,17.58
2019-04-27T06:05:09.370Z,17.37
2019-04-27T06:07:40.045Z,17.74
2019-04-27T06:10:09.704Z,18.14
2019-04-27T06:12:40.134Z,18.49
2019-04-27T06:15:12.369Z,18.93
2019-04-27T06:17:43.340Z,19.43
2019-04-27T06:20:14.187Z,19.73
2019-04-27T06:22:45.681Z,20.18
2019-04-27T06:25:15.229Z,19.36
2019-04-27T06:27:44.695Z,19.98
2019-04-27T06:30:15.591Z,19.53
2019-04-27T06:32:45.984Z,19.53
2019-04-27T06:35:15.821Z,19.70
2019-04-27T06:37:45.239Z,19.79
2019-04-27T06:40:14.838Z,20.23
2019-04-27T06:42:43.337Z,20.71
2019-04-27T06:45:15.398Z,20.87
2019-04-27T06:47:44.910Z,21.05
2019-04-27T06:50:15.373Z,21.66
2019-04-27T06:52:45.459Z,22.20
2019-04-27T06:55:14.948Z,21.85
2019-04-27T06:57:45.322Z,22.56
2019-04-27T07:00:16.374Z,22.52
2019-04-27T07:02:45.773Z,22.62
2019-04-27T07:05:15.347Z,21.72
2019-04-27T07:07:44.727Z,22.33
2019-04-27T07:10:14.137Z,23.11
2019-04-27T07:12:44.644Z,22.80
2019-04-27T07:15:20.062Z,23.43
2019-04-27T07:17:51.403Z,24.08
2019-04-27T07:20:21.022Z,24.18
2019-04-27T07:22:54.613Z,23.98
2019-04-27T07:25:28.810Z,26.67
2019-04-27T07:27:59.403Z,26.82
2019-04-27T07:30:30.801Z,28.35
2019-04-27T07:33:01.457Z,30.49
2019-04-27T07:35:32.950Z,31.99
2019-04-27T07:38:02.430Z,31.99
2019-04-27T07:40:33.039Z,31.18
2019-04-27T07:43:04.138Z,31.04
2019-04-27T07:45:36.199Z,31.38
2019-04-27T07:48:06.867Z,30.42
2019-04-27T07:50:36.323Z,30.44
2019-04-27T07:53:08.517Z,29.84
2019-04-27T07:55:39.300Z,30.27
2019-04-27T07:58:08.995Z,33.97
2019-04-27T08:00:39.558Z,32.67
2019-04-27T08:03:10.008Z,34.25
2019-04-27T08:05:39.494Z,32.00
2019-04-27T08:08:09.853Z,29.25
2019-04-27T08:10:39.298Z,26.15
2019-04-27T08:13:09.720Z,25.65
2019-04-27T08:15:39.693Z,22.60
2019-04-27T08:18:09.215Z,22.60
2019-04-27T08:20:39.166Z,21.87
2019-04-27T08:23:09.487Z,21.18
2019-04-27T08:25:39.253Z,21.69
2019-04-27T08:28:20.513Z,21.01
2019-04-27T08:30:52.462Z,21.24
2019-04-27T08:33:33.548Z,21.44
2019-04-27T08:36:05.312Z,21.63
2019-04-27T08:38:39.158Z,22.30
2019-04-27T08:41:09.666Z,22.12
2019-04-27T08:43:40.176Z,22.55
2019-04-27T08:46:13.552Z,23.40
2019-04-27T08:48:45.896Z,23.80
2019-04-27T08:51:15.578Z,23.43
2019-04-27T08:53:45.059Z,22.63
2019-04-27T08:56:16.693Z,22.40
2019-04-27T08:58:46.115Z,23.46
2019-04-27T09:01:18.356Z,27.08
2019-04-27T09:03:50.844Z,30.28
2019-04-27T09:06:23.653Z,30.51
2019-04-27T09:08:59.269Z,30.66
2019-04-27T09:11:47.175Z,29.48
2019-04-27T09:14:23.272Z,28.76
2019-04-27T09:17:03.663Z,27.29
2019-04-27T09:19:35.977Z,26.73
2019-04-27T09:22:15.870Z,24.13
2019-04-27T09:24:46.725Z,24.04
2019-04-27T09:27:19.615Z,24.12
2019-04-27T09:29:50.023Z,24.37
2019-04-27T09:32:20.972Z,25.75
2019-04-27T09:34:50.814Z,27.33
2019-04-27T09:37:19.901Z,29.00
2019-04-27T09:39:51.161Z,32.50
2019-04-27T09:42:22.399Z,35.25
2019-04-27T09:44:52.179Z,34.90
2019-04-27T09:47:27.162Z,35.07
2019-04-27T09:49:58.404Z,32.55
2019-04-27T09:52:29.121Z,32.11
2019-04-27T09:54:59.736Z,30.44
2019-04-27T09:57:30.351Z,32.02
2019-04-27T10:00:00.969Z,29.70
2019-04-27T10:02:31.475Z,30.09
2019-04-27T10:05:02.436Z,29.19
2019-04-27T10:07:33.333Z,29.39
2019-04-27T10:10:04.105Z,28.90
2019-04-27T10:12:36.834Z,28.35
2019-04-27T10:15:07.237Z,27.55
2019-04-27T10:17:37.984Z,28.07
2019-04-27T10:20:09.433Z,27.87
2019-04-27T10:22:42.755Z,27.93
2019-04-27T10:25:12.666Z,28.39
2019-04-27T10:27:45.793Z,28.59
2019-04-27T10:30:16.497Z,26.51
2019-04-27T10:32:46.229Z,27.35
2019-04-27T10:35:16.568Z,26.27
2019-04-27T10:37:48.643Z,25.77
2019-04-27T10:40:19.048Z,25.34
2019-04-27T10:42:50.897Z,25.26
2019-04-27T10:45:21.439Z,25.90
2019-04-27T10:47:51.941Z,25.46
2019-04-27T10:50:22.655Z,26.53
2019-04-27T10:52:54.058Z,27.22
2019-04-27T10:55:23.689Z,26.71
2019-04-27T10:57:53.082Z,27.24
2019-04-27T11:00:25.719Z,25.74
2019-04-27T11:02:56.544Z,25.74
2019-04-27T11:05:35.851Z,26.34
2019-04-27T11:08:06.582Z,26.61
2019-04-27T11:10:36.204Z,25.29
2019-04-27T11:13:06.286Z,25.30
2019-04-27T11:15:37.147Z,24.59
2019-04-27T11:18:07.981Z,24.03
2019-04-27T11:20:38.392Z,23.55
2019-04-27T11:23:12.098Z,24.28
2019-04-27T11:25:40.031Z,23.53
2019-04-27T11:28:12.735Z,24.11
2019-04-27T11:30:43.038Z,24.55
2019-04-27T11:33:13.655Z,24.24
2019-04-27T11:35:46.968Z,22.94
2019-04-27T11:38:17.597Z,22.80
2019-04-27T11:40:48.030Z,23.22
2019-04-27T11:43:17.370Z,23.32
2019-04-27T11:45:46.109Z,22.10
2019-04-27T11:48:18.488Z,23.19
2019-04-27T11:50:49.116Z,23.46
2019-04-27T11:53:23.181Z,22.50
2019-04-27T11:55:52.782Z,23.02
2019-04-27T11:58:23.137Z,22.49
2019-04-27T12:00:52.616Z,23.32
2019-04-27T12:03:22.322Z,23.47
2019-04-27T12:05:51.749Z,23.93
2019-04-27T12:08:21.173Z,23.95
2019-04-27T12:10:51.614Z,25.03
2019-04-27T12:13:22.448Z,25.05
2019-04-27T12:15:51.964Z,24.38
2019-04-27T12:18:22.414Z,25.43
2019-04-27T12:20:51.992Z,26.44
2019-04-27T12:23:33.095Z,26.15
2019-04-27T12:25:52.497Z,25.18
2019-04-27T12:28:27.198Z,24.44
2019-04-27T12:31:04.488Z,23.27
2019-04-27T12:33:35.802Z,25.67
2019-04-27T12:36:07.472Z,25.75
2019-04-27T12:38:37.988Z,25.07
2019-04-27T12:41:08.458Z,25.42
2019-04-27T12:43:39.314Z,25.42
2019-04-27T12:46:10.556Z,25.16
2019-04-27T12:48:45.829Z,24.36
2019-04-27T12:51:20.989Z,25.24
2019-04-27T12:53:59.947Z,25.01
2019-04-27T12:56:32.133Z,23.56
2019-04-27T12:59:04.204Z,22.33
2019-04-27T13:01:36.125Z,23.70
2019-04-27T13:04:05.865Z,22.75
2019-04-27T13:06:36.570Z,23.10
2019-04-27T13:09:09.064Z,22.59
2019-04-27T13:11:39.471Z,23.05
2019-04-27T13:14:08.731Z,22.96
2019-04-27T13:16:39.827Z,23.52
2019-04-27T13:19:09.190Z,22.80
2019-04-27T13:21:38.747Z,22.99
2019-04-27T13:24:09.800Z,23.36
2019-04-27T13:26:51.357Z,23.22
2019-04-27T13:29:21.930Z,22.83
2019-04-27T13:31:52.369Z,22.39
2019-04-27T13:34:23.997Z,23.14
2019-04-27T13:36:56.076Z,22.02
2019-04-27T13:39:27.048Z,22.71
2019-04-27T13:41:57.917Z,23.35
2019-04-27T13:44:30.624Z,23.43
2019-04-27T13:47:18.153Z,24.00
2019-04-27T13:50:08.002Z,24.78
2019-04-27T13:52:37.572Z,24.56
2019-04-27T13:55:27.080Z,23.54
2019-04-27T13:57:58.873Z,23.12
2019-04-27T14:00:30.709Z,22.94
2019-04-27T14:03:01.730Z,22.47
2019-04-27T14:05:37.370Z,22.65
2019-04-27T14:08:09.190Z,22.17
2019-04-27T14:10:42.882Z,21.85
2019-04-27T14:13:13.812Z,22.26
2019-04-27T14:15:45.359Z,22.24
2019-04-27T14:18:16.092Z,21.76
2019-04-27T14:20:50.769Z,22.25
2019-04-27T14:23:22.957Z,22.42
2019-04-27T14:25:52.502Z,22.85
2019-04-27T14:28:22.933Z,22.20
2019-04-27T14:30:53.554Z,21.86
2019-04-27T14:33:23.287Z,21.91
2019-04-27T14:35:53.098Z,21.89
2019-04-27T14:38:24.133Z,22.50
2019-04-27T14:40:56.206Z,22.12
2019-04-27T14:43:28.603Z,22.79
2019-04-27T14:46:02.572Z,23.53
2019-04-27T14:48:36.107Z,23.22
2019-04-27T14:51:04.934Z,23.61
2019-04-27T14:53:38.600Z,23.80
2019-04-27T14:56:08.979Z,23.99
2019-04-27T14:58:37.822Z,23.57
2019-04-27T15:01:08.658Z,24.77
2019-04-27T15:03:39.153Z,24.81
2019-04-27T15:06:13.838Z,24.31
2019-04-27T15:08:43.733Z,23.28
2019-04-27T15:11:19.094Z,23.86
2019-04-27T15:13:55.011Z,23.32
2019-04-27T15:16:25.603Z,23.18
2019-04-27T15:18:59.863Z,23.00
2019-04-27T15:21:32.642Z,23.41
2019-04-27T15:24:09.391Z,23.25
2019-04-27T15:26:35.051Z,23.64
2019-04-27T15:29:07.647Z,23.77
2019-04-27T15:31:41.920Z,23.03
2019-04-27T15:34:23.424Z,22.20
2019-04-27T15:36:56.864Z,22.23
2019-04-27T15:39:41.351Z,22.23
2019-04-27T15:42:12.492Z,22.01
2019-04-27T15:44:44.188Z,21.72
2019-04-27T15:47:13.746Z,21.90
2019-04-27T15:49:51.093Z,21.23
2019-04-27T15:52:17.852Z,21.66
2019-04-27T15:54:50.040Z,21.52
2019-04-27T15:57:20.923Z,21.38
2019-04-27T15:59:50.549Z,21.21
2019-04-27T16:02:20.053Z,21.29
2019-04-27T16:04:53.295Z,21.49
2019-04-27T16:07:25.295Z,21.59
2019-04-27T16:10:00.890Z,21.89
2019-04-27T16:12:30.516Z,21.96
2019-04-27T16:15:01.116Z,21.89
2019-04-27T16:17:31.977Z,22.13
2019-04-27T16:20:01.941Z,22.12
2019-04-27T16:22:31.548Z,22.36
2019-04-27T16:25:03.929Z,22.15
2019-04-27T16:27:35.169Z,22.24
2019-04-27T16:30:12.812Z,22.09
2019-04-27T16:32:40.371Z,22.34
2019-04-27T16:35:13.974Z,22.29
2019-04-27T16:37:52.002Z,22.42
2019-04-27T16:40:24.393Z,22.14
2019-04-27T16:42:54.898Z,22.01
2019-04-27T16:45:27.219Z,21.70
2019-04-27T16:47:59.424Z,21.37
2019-04-27T16:50:28.969Z,21.49
2019-04-27T16:53:00.949Z,21.14
2019-04-27T16:55:34.127Z,21.13
2019-04-27T16:58:09.629Z,21.43
2019-04-27T17:00:38.711Z,21.71
2019-04-27T17:03:09.302Z,22.03
2019-04-27T17:05:41.293Z,22.56
2019-04-27T17:08:21.416Z,22.54
2019-04-27T17:10:45.549Z,21.82
2019-04-27T17:13:16.207Z,21.31
2019-04-27T17:15:53.713Z,21.32
2019-04-27T17:18:42.669Z,20.71
2019-04-27T17:21:18.918Z,21.02
2019-04-27T17:23:43.795Z,21.05
2019-04-27T17:26:21.220Z,21.12
2019-04-27T17:28:55.632Z,21.18
2019-04-27T17:31:26.606Z,21.40
2019-04-27T17:34:00.416Z,21.30
2019-04-27T17:36:30.434Z,21.02
2019-04-27T17:39:01.937Z,21.04
2019-04-27T17:41:32.415Z,20.72
2019-04-27T17:44:05.212Z,20.24
2019-04-27T17:46:35.723Z,20.09
2019-04-27T17:49:05.291Z,20.11
2019-04-27T17:51:35.374Z,20.11
2019-04-27T17:54:11.135Z,20.06
2019-04-27T17:56:48.362Z,19.84
2019-04-27T17:59:16.970Z,19.70
2019-04-27T18:01:44.733Z,19.64
2019-04-27T18:04:14.108Z,19.51
2019-04-27T18:06:44.606Z,19.57
2019-04-27T18:09:16.310Z,19.85
2019-04-27T18:11:44.795Z,20.06
2019-04-27T18:14:14.799Z,20.21
2019-04-27T18:16:44.676Z,20.40
2019-04-27T18:19:19.316Z,20.42
2019-04-27T18:22:06.574Z,18.92
2019-04-27T18:24:38.649Z,17.97
2019-04-27T18:27:28.689Z,17.72
2019-04-27T18:30:03.247Z,17.63
2019-04-27T18:32:32.737Z,16.88
2019-04-27T18:35:01.583Z,17.16
2019-04-27T18:37:32.207Z,16.64
2019-04-27T18:40:02.596Z,16.77
2019-04-27T18:42:31.967Z,16.46
2019-04-27T18:45:07.070Z,16.84
2019-04-27T18:47:36.632Z,17.05
2019-04-27T18:50:14.641Z,16.71
2019-04-27T18:52:58.220Z,16.47
2019-04-27T18:55:29.015Z,16.45
2019-04-27T18:58:02.152Z,16.80
2019-04-27T19:00:34.670Z,16.82
2019-04-27T19:03:06.446Z,17.11
2019-04-27T19:05:40.136Z,17.07
2019-04-27T19:08:13.558Z,17.06
2019-04-27T19:10:49.123Z,17.21
2019-04-27T19:13:19.651Z,17.18
2019-04-27T19:15:49.135Z,17.31
2019-04-27T19:18:19.945Z,17.01
2019-04-27T19:20:52.029Z,16.99
2019-04-27T19:23:24.199Z,17.26
2019-04-27T19:25:58.527Z,17.28
2019-04-27T19:28:31.049Z,16.95
2019-04-27T19:31:11.088Z,17.20
2019-04-27T19:33:41.696Z,17.34
2019-04-27T19:36:12.479Z,17.37
2019-04-27T19:38:43.455Z,17.24
2019-04-27T19:41:12.932Z,17.18
2019-04-27T19:43:43.278Z,17.23
2019-04-27T19:46:13.726Z,17.26
2019-04-27T19:48:43.133Z,17.35
2019-04-27T19:51:12.494Z,17.02
2019-04-27T19:53:41.912Z,17.25
2019-04-27T19:56:11.317Z,17.14
2019-04-27T19:58:43.347Z,16.93
2019-04-27T20:01:18.143Z,16.52
2019-04-27T20:04:06.207Z,16.32
2019-04-27T20:06:38.340Z,15.94
2019-04-27T20:09:19.220Z,15.76
2019-04-27T20:11:49.741Z,15.92
2019-04-27T20:14:20.861Z,16.07
2019-04-27T20:16:52.010Z,16.03
2019-04-27T20:19:22.477Z,15.67
2019-04-27T20:21:52.939Z,15.62
2019-04-27T20:24:22.889Z,15.50
2019-04-27T20:26:53.216Z,15.34
2019-04-27T20:29:26.859Z,15.44
2019-04-27T20:31:57.265Z,15.16
2019-04-27T20:34:26.853Z,15.20
2019-04-27T20:36:57.450Z,15.17
2019-04-27T20:39:28.875Z,15.03
2019-04-27T20:41:58.519Z,15.17
2019-04-27T20:44:27.858Z,15.35
2019-04-27T20:47:01.175Z,15.34
2019-04-27T20:49:31.789Z,15.48
2019-04-27T20:52:14.828Z,15.02
2019-04-27T20:54:46.796Z,15.31
2019-04-27T20:57:16.277Z,15.13
2019-04-27T20:59:46.785Z,15.28
2019-04-27T21:02:32.523Z,15.48
2019-04-27T21:05:02.897Z,15.30
2019-04-27T21:07:42.951Z,15.29
2019-04-27T21:10:13.666Z,15.22
2019-04-27T21:12:44.502Z,14.90
2019-04-27T21:15:14.014Z,14.85
2019-04-27T21:17:45.626Z,14.90
2019-04-27T21:20:16.123Z,14.70
2019-04-27T21:22:47.887Z,14.52
2019-04-27T21:25:19.650Z,14.37
2019-04-27T21:27:51.405Z,14.46
2019-04-27T21:30:21.834Z,14.45
2019-04-27T21:32:52.883Z,14.48
2019-04-27T21:35:23.258Z,14.36
2019-04-27T21:37:53.664Z,14.34
2019-04-27T21:40:25.467Z,14.32
2019-04-27T21:42:55.863Z,14.35
2019-04-27T21:45:26.352Z,14.14
2019-04-27T21:47:58.536Z,14.19
2019-04-27T21:50:27.891Z,14.14
2019-04-27T21:53:02.781Z,14.13
2019-04-27T21:55:37.259Z,13.91
2019-04-27T21:58:07.889Z,14.06
2019-04-27T22:00:44.032Z,14.09
2019-04-27T22:03:18.546Z,13.86
2019-04-27T22:05:47.975Z,13.87
2019-04-27T22:08:18.417Z,13.67
2019-04-27T22:10:47.854Z,13.82
2019-04-27T22:13:18.309Z,13.81
2019-04-27T22:15:47.125Z,13.51
2019-04-27T22:18:15.599Z,13.51
2019-04-27T22:20:46.018Z,13.28
2019-04-27T22:23:34.073Z,13.46
2019-04-27T22:26:03.490Z,13.51
2019-04-27T22:28:46.157Z,13.62
2019-04-27T22:31:04.187Z,13.76
2019-04-27T22:33:36.216Z,13.71
2019-04-27T22:36:06.832Z,13.78
2019-04-27T22:38:36.344Z,13.72
2019-04-27T22:41:17.585Z,13.84
2019-04-27T22:44:05.832Z,13.77
2019-04-27T22:46:37.910Z,13.75
2019-04-27T22:49:10.964Z,13.52
2019-04-27T22:51:43.078Z,13.50
2019-04-27T22:54:12.692Z,13.54
2019-04-27T22:56:44.657Z,13.71
2019-04-27T22:59:15.068Z,13.53
2019-04-27T23:02:01.581Z,13.48
2019-04-27T23:04:35.132Z,13.52
2019-04-27T23:07:05.594Z,13.57
2019-04-27T23:09:35.894Z,13.48
2019-04-27T23:12:07.953Z,13.48
2019-04-27T23:14:41.492Z,13.11
2019-04-27T23:17:19.915Z,13.42
2019-04-27T23:19:50.999Z,13.31
2019-04-27T23:22:21.451Z,13.36
2019-04-27T23:24:51.995Z,13.38
2019-04-27T23:27:21.917Z,13.58
2019-04-27T23:29:52.528Z,13.74
2019-04-27T23:32:42.759Z,13.72
2019-04-27T23:35:13.427Z,13.72
2019-04-27T23:37:45.742Z,13.87
2019-04-27T23:40:15.764Z,13.84
2019-04-27T23:42:46.275Z,13.84
2019-04-27T23:45:15.863Z,13.59
2019-04-27T23:47:45.243Z,13.61
2019-04-27T23:50:15.123Z,13.52
2019-04-27T23:53:01.890Z,13.49
2019-04-27T23:55:34.776Z,13.23
2019-04-27T23:58:05.210Z,13.54
